createdAt,value
2019-02-05T12:49:17.200Z,37.50
2019-02-05T12:50:14.657Z,36.99
2019-02-05T12:51:15.269Z,36.89
2019-02-05T12:52:14.988Z,39.11
2019-02-05T12:53:14.086Z,38.39
2019-02-05T12:54:14.307Z,36.98
2019-02-05T12:55:16.164Z,36.25
2019-02-05T12:55:55.096Z,36.65
2019-02-05T12:56:55.531Z,35.54
2019-02-05T12:57:54.915Z,36.15
2019-02-05T12:58:55.069Z,36.15
2019-02-05T12:59:52.218Z,36.15
2019-02-05T13:00:58.282Z,36.45
2019-02-05T13:01:52.547Z,36.65
2019-02-05T13:02:50.775Z,36.15
2019-02-05T13:03:51.082Z,36.03
2019-02-05T13:04:57.329Z,36.34
2019-02-05T13:05:52.695Z,36.43
2019-02-05T13:06:50.654Z,35.83
2019-02-05T13:07:50.924Z,36.74
2019-02-05T13:08:50.660Z,37.56
2019-02-05T13:09:51.045Z,37.06
2019-02-05T13:11:19.123Z,38.17
2019-02-05T13:12:11.038Z,39.91
2019-02-05T13:14:10.076Z,38.61
2019-02-05T13:15:10.167Z,38.93
2019-02-05T13:16:10.077Z,39.05
2019-02-05T13:17:10.343Z,39.17
2019-02-05T13:18:10.184Z,39.59
2019-02-05T13:19:11.234Z,39.49
2019-02-05T13:20:10.119Z,39.29
2019-02-05T13:21:09.958Z,38.68
2019-02-05T13:22:10.092Z,39.29
2019-02-05T13:23:09.952Z,39.27
2019-02-05T13:24:09.601Z,39.07
2019-02-05T13:25:10.003Z,39.27
2019-02-05T13:26:09.833Z,38.66
2019-02-05T13:27:09.702Z,39.27
2019-02-05T13:28:09.782Z,38.66
2019-02-05T13:29:09.698Z,38.46
2019-02-05T13:30:09.816Z,38.17
2019-02-05T13:31:10.316Z,38.38
2019-02-05T13:32:09.863Z,38.38
2019-02-05T13:33:09.953Z,38.38
2019-02-05T13:34:09.227Z,38.28
2019-02-05T13:35:10.419Z,38.58
2019-02-05T13:36:09.744Z,38.76
2019-02-05T13:37:09.506Z,38.76
2019-02-05T13:38:09.534Z,38.28
2019-02-05T13:39:09.712Z,38.58
2019-02-05T13:40:09.750Z,38.87
2019-02-05T13:41:11.347Z,38.48
2019-02-05T13:42:09.410Z,38.38
2019-02-05T13:43:09.379Z,38.48
2019-02-05T13:44:09.549Z,38.28
2019-02-05T13:45:09.021Z,38.58
2019-02-05T13:46:09.523Z,38.48
2019-02-05T13:47:09.332Z,38.68
2019-02-05T13:48:09.276Z,38.48
2019-02-05T13:49:09.322Z,38.07
2019-02-05T13:50:09.815Z,38.98
2019-02-05T13:51:09.421Z,39.31
2019-02-05T13:52:09.588Z,38.90
2019-02-05T13:53:09.207Z,39.09
2019-02-05T13:54:09.328Z,38.28
2019-02-05T13:55:09.183Z,38.78
2019-02-05T13:56:09.337Z,38.07
2019-02-05T13:57:09.004Z,38.78
2019-02-05T13:58:09.066Z,38.58
2019-02-05T13:59:08.998Z,38.28
2019-02-05T14:00:08.939Z,38.38
2019-02-05T14:01:19.571Z,38.28
2019-02-05T14:02:10.365Z,38.38
2019-02-05T14:03:08.583Z,38.17
2019-02-05T14:04:08.728Z,38.58
2019-02-05T14:05:09.412Z,38.68
2019-02-05T14:06:08.879Z,38.89
2019-02-05T14:07:09.248Z,38.78
2019-02-05T14:08:08.851Z,38.58
2019-02-05T14:09:10.651Z,38.89
2019-02-05T14:10:08.966Z,38.38
2019-02-05T14:11:08.886Z,38.78
2019-02-05T14:12:08.882Z,38.68
2019-02-05T14:13:08.720Z,38.48
2019-02-05T14:14:08.829Z,38.89
2019-02-05T14:15:08.834Z,38.78
2019-02-05T14:16:08.982Z,38.68
2019-02-05T14:17:08.665Z,38.89
2019-02-05T14:18:08.891Z,38.89
2019-02-05T14:19:08.718Z,38.78
2019-02-05T14:20:08.561Z,38.68
2019-02-05T14:21:08.899Z,38.38
2019-02-05T14:22:09.076Z,38.89
2019-02-05T14:23:08.836Z,38.89
2019-02-05T14:24:08.397Z,38.38
2019-02-05T14:25:08.380Z,38.58
2019-02-05T14:26:08.735Z,39.09
2019-02-05T14:27:08.528Z,38.89
2019-02-05T14:28:08.419Z,38.89
2019-02-05T14:29:08.710Z,38.68
2019-02-05T14:30:08.406Z,38.28
2019-02-05T14:31:08.948Z,38.78
2019-02-05T14:32:08.519Z,38.89
2019-02-05T14:33:08.498Z,38.78
2019-02-05T14:34:08.234Z,38.68
2019-02-05T14:35:08.309Z,38.58
2019-02-05T14:36:08.545Z,38.78
2019-02-05T14:37:08.428Z,38.48
2019-02-05T14:38:08.254Z,38.58
2019-02-05T14:39:08.616Z,38.38
2019-02-05T14:40:08.329Z,38.58
2019-02-05T14:41:08.460Z,38.39
2019-02-05T14:42:08.090Z,39.20
2019-02-05T14:43:08.417Z,39.11
2019-02-05T14:44:08.386Z,39.02
2019-02-05T14:45:08.078Z,39.12
2019-02-05T14:46:08.595Z,39.33
2019-02-05T14:47:08.462Z,39.02
2019-02-05T14:48:08.524Z,38.92
2019-02-05T14:49:08.015Z,38.84
2019-02-05T14:50:07.988Z,38.62
2019-02-05T14:51:08.190Z,39.45
2019-02-05T14:52:08.224Z,39.33
2019-02-05T14:53:08.660Z,39.45
2019-02-05T14:54:09.189Z,39.75
2019-02-05T14:55:08.145Z,39.45
2019-02-05T14:56:08.065Z,39.12
2019-02-05T14:57:08.724Z,39.65
2019-02-05T14:58:07.877Z,39.34
2019-02-05T14:59:08.127Z,39.65
2019-02-05T15:00:07.936Z,39.94
2019-02-05T15:01:08.364Z,39.12
2019-02-05T15:04:10.037Z,39.04
2019-02-05T15:05:09.968Z,39.56
2019-02-05T15:06:09.501Z,39.45
2019-02-05T15:07:09.855Z,38.72
2019-02-05T15:08:10.018Z,39.94
2019-02-05T15:09:09.596Z,39.14
2019-02-05T15:10:09.413Z,38.92
2019-02-05T15:11:09.421Z,39.04
2019-02-05T15:12:09.384Z,39.12
2019-02-05T15:13:10.222Z,38.82
2019-02-05T15:14:09.637Z,38.21
2019-02-05T15:15:09.865Z,38.31
2019-02-05T15:16:10.124Z,38.29
2019-02-05T15:17:09.634Z,38.41
2019-02-05T15:18:09.477Z,38.41
2019-02-05T15:19:09.262Z,38.72
2019-02-05T15:20:09.638Z,38.29
2019-02-05T15:21:09.517Z,38.62
2019-02-05T15:22:09.569Z,38.70
2019-02-05T15:23:09.374Z,38.90
2019-02-05T15:24:09.498Z,38.80
2019-02-05T15:25:09.303Z,39.00
2019-02-05T15:26:08.884Z,38.19
2019-02-05T15:27:08.808Z,38.90
2019-02-05T15:28:09.275Z,38.29
2019-02-05T15:29:09.221Z,39.00
2019-02-05T15:30:08.861Z,38.80
2019-02-05T15:31:09.110Z,38.90
2019-02-05T15:32:08.661Z,38.19
2019-02-05T15:33:08.971Z,38.50
2019-02-05T15:34:09.073Z,38.90
2019-02-05T15:35:08.565Z,38.50
2019-02-05T15:36:08.962Z,38.80
2019-02-05T15:37:09.052Z,39.00
2019-02-05T15:38:09.087Z,38.90
2019-02-05T15:39:09.233Z,38.60
2019-02-05T15:40:09.018Z,39.00
2019-02-05T15:41:08.349Z,38.70
2019-02-05T15:42:08.304Z,38.90
2019-02-05T15:43:08.632Z,38.70
2019-02-05T15:44:08.432Z,38.80
2019-02-05T15:45:08.214Z,39.00
2019-02-05T15:46:08.154Z,38.39
2019-02-05T15:47:08.403Z,38.80
2019-02-05T15:48:08.265Z,38.39
2019-02-05T15:49:08.045Z,37.79
2019-02-05T15:50:08.183Z,38.19
2019-02-05T15:51:08.779Z,37.89
2019-02-05T15:52:08.387Z,38.50
2019-02-05T15:53:08.044Z,38.19
2019-02-05T15:55:07.839Z,37.89
2019-02-05T15:56:08.053Z,37.89
2019-02-05T15:57:07.743Z,38.19
2019-02-05T15:58:07.985Z,38.39
2019-02-05T15:59:07.850Z,38.60
2019-02-05T16:00:08.057Z,38.90
2019-02-05T16:01:08.000Z,38.39
2019-02-05T16:02:07.891Z,38.19
2019-02-05T16:37:06.752Z,38.90
2019-02-05T16:48:06.118Z,38.90
2019-02-05T16:50:05.954Z,38.39
2019-02-05T16:53:06.016Z,38.39
2019-02-05T16:54:06.475Z,38.90
2019-02-05T16:57:05.875Z,38.90
2019-02-05T17:17:05.119Z,37.79
2019-02-05T17:18:05.084Z,38.09
2019-02-05T17:23:05.015Z,37.89
2019-02-05T17:24:05.891Z,37.89
2019-02-05T17:25:04.907Z,37.59
2019-02-05T17:26:04.978Z,37.79
2019-02-05T17:27:05.115Z,37.68
2019-02-05T17:28:04.813Z,37.79
2019-02-05T17:29:05.051Z,37.68
2019-02-05T17:30:04.833Z,37.68
2019-02-05T17:31:04.760Z,37.79
2019-02-05T17:32:07.670Z,37.68
2019-02-05T17:33:04.696Z,37.68
2019-02-05T17:34:04.799Z,37.79
2019-02-05T17:35:04.688Z,38.29
2019-02-05T17:36:04.592Z,37.89
2019-02-05T17:37:05.039Z,37.89
2019-02-05T17:38:05.158Z,37.89
2019-02-05T17:39:04.483Z,37.70
2019-02-05T17:40:05.119Z,37.89
2019-02-05T17:41:04.753Z,37.79
2019-02-05T17:42:04.468Z,37.68
2019-02-05T17:43:04.534Z,37.90
2019-02-05T17:44:04.634Z,37.89
2019-02-05T17:45:04.436Z,37.99
2019-02-05T17:46:05.903Z,37.79
2019-02-05T17:47:04.764Z,37.89
2019-02-05T17:48:04.493Z,37.68
2019-02-05T17:49:04.120Z,37.59
2019-02-05T17:50:04.106Z,37.89
2019-02-05T17:51:04.217Z,37.89
2019-02-05T17:52:04.706Z,37.79
2019-02-05T17:53:04.217Z,38.29
2019-02-05T17:54:03.966Z,37.79
2019-02-05T17:55:04.024Z,38.19
2019-02-05T17:56:03.950Z,38.19
2019-02-05T17:57:04.083Z,38.29
2019-02-05T17:58:03.953Z,37.99
2019-02-05T17:59:04.021Z,38.19
2019-02-05T18:00:04.415Z,38.09
2019-02-05T18:01:03.872Z,38.29
2019-02-05T18:02:04.686Z,37.89
2019-02-05T18:03:03.997Z,37.81
2019-02-05T18:04:03.873Z,37.59
2019-02-05T18:05:04.209Z,38.19
2019-02-05T18:06:03.841Z,37.79
2019-02-05T18:07:04.247Z,37.68
2019-02-05T18:08:03.703Z,37.59
2019-02-05T18:09:03.723Z,38.19
2019-02-05T18:10:03.634Z,38.29
2019-02-05T18:11:03.732Z,38.09
2019-02-05T18:12:03.556Z,37.59
2019-02-05T18:13:03.696Z,38.19
2019-02-05T18:14:03.917Z,38.19
2019-02-05T18:15:03.536Z,38.29
2019-02-05T18:16:03.847Z,38.09
2019-02-05T18:17:04.080Z,38.19
2019-02-05T18:18:03.710Z,38.19
2019-02-05T18:19:03.860Z,37.90
2019-02-05T18:20:03.380Z,37.60
2019-02-05T18:21:03.400Z,38.29
2019-02-05T18:22:03.422Z,37.99
2019-02-05T18:23:03.366Z,38.19
2019-02-05T18:24:03.438Z,37.89
2019-02-05T18:25:03.656Z,38.19
2019-02-05T18:26:03.436Z,37.89
2019-02-05T18:27:03.268Z,37.89
2019-02-05T18:28:04.264Z,37.99
2019-02-05T18:29:03.398Z,37.79
2019-02-05T18:30:03.302Z,37.89
2019-02-05T18:31:03.267Z,37.89
2019-02-05T18:32:03.052Z,38.19
2019-02-05T18:33:05.814Z,38.09
2019-02-05T18:34:03.726Z,38.39
2019-02-05T18:35:03.098Z,38.39
2019-02-05T18:36:03.200Z,38.29
2019-02-05T18:37:03.522Z,38.29
2019-02-05T18:38:02.908Z,37.99
2019-02-05T18:39:03.536Z,38.39
2019-02-05T18:40:03.023Z,37.89
2019-02-05T18:41:03.312Z,38.39
2019-02-05T18:42:02.923Z,37.89
2019-02-05T18:43:02.836Z,37.99
2019-02-05T18:44:02.743Z,38.19
2019-02-05T18:45:03.009Z,38.31
2019-02-05T18:46:03.228Z,37.89
2019-02-05T18:47:02.738Z,38.09
2019-02-05T18:48:03.523Z,38.01
2019-02-05T18:49:05.541Z,38.19
2019-02-05T18:50:02.781Z,38.39
2019-02-05T18:51:02.720Z,37.90
2019-02-05T18:52:03.052Z,37.89
2019-02-05T18:53:03.428Z,37.89
2019-02-05T18:54:05.059Z,37.89
2019-02-05T18:55:02.471Z,38.19
2019-02-05T18:56:02.460Z,38.39
2019-02-05T18:57:02.451Z,38.39
2019-02-05T18:58:09.288Z,37.99
2019-02-05T18:59:03.489Z,37.90
2019-02-05T19:00:02.358Z,38.01
2019-02-05T19:01:02.324Z,38.11
2019-02-05T19:02:02.290Z,37.90
2019-02-05T19:03:02.263Z,38.01
2019-02-05T19:04:02.783Z,37.90
2019-02-05T19:05:02.423Z,38.39
2019-02-05T19:06:02.190Z,38.09
2019-02-05T19:07:03.878Z,37.48
2019-02-05T19:08:02.536Z,37.59
2019-02-05T19:09:02.132Z,37.99
2019-02-05T19:10:02.745Z,38.19
2019-02-05T19:11:02.073Z,38.09
2019-02-05T19:12:04.879Z,37.99
2019-02-05T19:13:02.179Z,37.99
2019-02-05T19:14:02.704Z,38.39
2019-02-05T19:15:02.012Z,37.89
2019-02-05T19:16:02.661Z,38.41
2019-02-05T19:17:02.151Z,37.89
2019-02-05T19:18:02.059Z,37.89
2019-02-05T19:19:01.971Z,38.39
2019-02-05T19:20:01.854Z,37.90
2019-02-05T19:21:01.854Z,38.09
2019-02-05T19:22:01.718Z,37.99
2019-02-05T19:23:02.274Z,38.09
2019-02-05T19:24:02.015Z,37.48
2019-02-05T19:25:02.214Z,38.11
2019-02-05T19:26:01.963Z,37.99
2019-02-05T19:27:01.807Z,38.11
2019-02-05T19:28:01.653Z,37.48
2019-02-05T19:29:02.153Z,37.99
2019-02-05T19:30:01.605Z,37.38
2019-02-05T19:31:01.867Z,38.39
2019-02-05T19:32:01.557Z,37.60
2019-02-05T19:33:02.220Z,37.79
2019-02-05T19:34:01.472Z,38.19
2019-02-05T19:35:02.144Z,38.19
2019-02-05T19:36:02.311Z,38.19
2019-02-05T19:37:01.657Z,38.11
2019-02-05T19:38:01.825Z,38.11
2019-02-05T19:39:01.774Z,38.21
2019-02-05T19:40:01.377Z,38.09
2019-02-05T19:41:01.721Z,37.99
2019-02-05T19:42:01.321Z,37.99
2019-02-05T19:43:01.407Z,38.21
2019-02-05T19:44:01.943Z,38.09
2019-02-05T19:45:01.281Z,38.11
2019-02-05T19:46:01.234Z,37.68
2019-02-05T19:47:01.268Z,37.81
2019-02-05T19:48:01.740Z,38.01
2019-02-05T19:49:01.092Z,38.11
2019-02-05T19:50:01.860Z,37.59
2019-02-05T19:51:01.500Z,37.38
2019-02-05T19:52:01.057Z,37.81
2019-02-05T19:53:01.288Z,37.68
2019-02-05T19:54:00.990Z,37.59
2019-02-05T19:55:01.351Z,37.70
2019-02-05T19:56:01.105Z,37.59
2019-02-05T19:57:01.276Z,37.59
2019-02-05T19:58:00.985Z,37.38
2019-02-05T19:59:00.896Z,37.59
2019-02-05T20:00:00.878Z,37.89
2019-02-05T20:01:01.091Z,37.79
2019-02-05T20:02:01.068Z,38.09
2019-02-05T20:03:01.241Z,38.11
2019-02-05T20:04:01.026Z,37.79
2019-02-05T20:05:00.889Z,38.09
2019-02-05T20:06:00.817Z,37.59
2019-02-05T20:07:01.184Z,38.21
2019-02-05T20:08:01.095Z,38.11
2019-02-05T20:09:00.950Z,37.59
2019-02-05T20:10:00.547Z,37.59
2019-02-05T20:11:00.541Z,37.59
2019-02-05T20:12:00.899Z,37.60
2019-02-05T20:13:00.564Z,37.60
2019-02-05T20:14:00.485Z,37.90
2019-02-05T20:15:00.586Z,37.50
2019-02-05T20:16:00.858Z,37.40
2019-02-05T20:17:00.409Z,37.50
2019-02-05T20:18:00.432Z,37.70
2019-02-05T20:19:00.415Z,37.60
2019-02-05T20:20:00.389Z,37.30
2019-02-05T20:21:01.341Z,37.60
2019-02-05T20:22:00.269Z,37.18
2019-02-05T20:23:00.631Z,37.60
2019-02-05T20:24:00.509Z,37.28
2019-02-05T20:25:00.374Z,37.60
2019-02-05T20:26:00.254Z,37.30
2019-02-05T20:27:01.007Z,37.59
2019-02-05T20:28:00.182Z,37.90
2019-02-05T20:29:00.184Z,37.70
2019-02-05T20:30:00.377Z,37.70
2019-02-05T20:31:00.138Z,37.70
2019-02-05T20:32:00.501Z,37.60
2019-02-05T20:33:00.093Z,37.59
2019-02-05T20:34:00.121Z,37.68
2019-02-05T20:35:00.384Z,37.60
2019-02-05T20:36:00.126Z,37.59
2019-02-05T20:37:00.104Z,37.68
2019-02-05T20:38:00.374Z,37.79
2019-02-05T20:39:00.251Z,37.70
2019-02-05T20:40:00.343Z,37.60
2019-02-05T20:41:00.141Z,37.18
2019-02-05T20:41:59.946Z,37.08
2019-02-05T20:42:59.871Z,37.68
2019-02-05T20:44:00.066Z,37.20
2019-02-05T20:45:00.076Z,37.70
2019-02-05T20:45:59.967Z,37.59
2019-02-05T20:46:59.858Z,37.70
2019-02-05T20:47:59.693Z,37.70
2019-02-05T20:48:59.988Z,37.50
2019-02-05T20:49:59.715Z,37.70
2019-02-05T20:51:01.181Z,37.20
2019-02-05T20:51:59.756Z,37.60
2019-02-05T20:52:59.953Z,37.60
2019-02-05T20:53:59.629Z,37.70
2019-02-05T20:54:59.975Z,37.60
2019-02-05T20:56:00.256Z,37.60
2019-02-05T20:56:59.644Z,37.40
2019-02-05T20:57:59.455Z,37.20
2019-02-05T20:58:59.428Z,37.40
2019-02-05T20:59:59.961Z,37.60
2019-02-05T21:00:59.536Z,37.90
2019-02-05T21:02:00.691Z,37.60
2019-02-05T21:02:59.759Z,37.50
2019-02-05T21:04:01.554Z,36.98
2019-02-05T21:04:59.469Z,36.69
2019-02-05T21:05:59.508Z,37.60
2019-02-05T21:06:59.894Z,37.60
2019-02-05T21:07:59.660Z,37.20
2019-02-05T21:08:59.578Z,37.60
2019-02-05T21:09:59.539Z,37.81
2019-02-05T21:11:00.118Z,37.70
2019-02-05T21:11:59.156Z,37.70
2019-02-05T21:12:59.133Z,37.81
2019-02-05T21:13:59.660Z,37.30
2019-02-05T21:14:59.543Z,37.60
2019-02-05T21:15:59.155Z,37.60
2019-02-05T21:16:59.039Z,37.60
2019-02-05T21:17:59.653Z,37.60
2019-02-05T21:18:59.075Z,37.40
2019-02-05T21:19:59.033Z,37.60
2019-02-05T21:20:59.053Z,37.60
2019-02-05T21:21:59.399Z,36.79
2019-02-05T21:22:59.239Z,37.70
2019-02-05T21:23:59.501Z,37.40
2019-02-05T21:24:58.877Z,37.60
2019-02-05T21:25:58.977Z,37.60
2019-02-05T21:26:59.142Z,37.40
2019-02-05T21:27:59.047Z,37.60
2019-02-05T21:28:59.152Z,37.40
2019-02-05T21:29:59.048Z,36.99
2019-02-05T21:30:59.134Z,36.99
2019-02-05T21:31:58.887Z,37.10
2019-02-05T21:32:59.269Z,36.89
2019-02-05T21:33:58.897Z,37.60
2019-02-05T21:34:58.776Z,37.60
2019-02-05T21:35:58.913Z,36.99
2019-02-05T21:36:58.922Z,36.89
2019-02-05T21:37:59.098Z,36.87
2019-02-05T21:38:58.704Z,37.20
2019-02-05T21:40:02.569Z,36.99
2019-02-05T21:40:58.671Z,37.20
2019-02-05T21:41:58.652Z,36.89
2019-02-05T21:42:58.632Z,36.89
2019-02-05T21:43:58.524Z,36.67
2019-02-05T21:44:58.598Z,37.20
2019-02-05T21:46:00.926Z,36.89
2019-02-05T21:46:58.569Z,36.89
2019-02-05T21:47:58.553Z,36.87
2019-02-05T21:48:58.539Z,36.87
2019-02-05T21:49:58.530Z,37.20
2019-02-05T21:50:58.419Z,37.20
2019-02-05T21:51:58.400Z,37.20
2019-02-05T21:52:58.486Z,37.30
2019-02-05T21:53:58.455Z,37.20
2019-02-05T21:54:58.440Z,36.89
2019-02-05T21:55:58.321Z,37.20
2019-02-05T21:56:58.638Z,37.20
2019-02-05T21:57:58.374Z,36.79
2019-02-05T21:58:58.369Z,36.87
2019-02-05T21:59:58.329Z,37.20
2019-02-05T22:00:58.320Z,37.08
2019-02-05T22:01:58.381Z,37.10
2019-02-05T22:02:58.282Z,36.98
2019-02-05T22:03:58.364Z,37.28
2019-02-05T22:04:58.221Z,36.89
2019-02-05T22:05:58.252Z,37.20
2019-02-05T22:06:58.215Z,37.50
2019-02-05T22:07:58.195Z,36.89
2019-02-05T22:08:58.156Z,37.10
2019-02-05T22:09:58.160Z,36.79
2019-02-05T22:10:58.106Z,37.30
2019-02-05T22:11:58.070Z,36.99
2019-02-05T22:12:57.967Z,37.30
2019-02-05T22:13:58.036Z,36.89
2019-02-05T22:14:58.024Z,37.10
2019-02-05T22:15:58.000Z,37.20
2019-02-05T22:16:57.979Z,36.89
2019-02-05T22:17:57.949Z,37.30
2019-02-05T22:18:58.169Z,36.89
2019-02-05T22:19:57.896Z,37.20
2019-02-05T22:20:57.779Z,36.89
2019-02-05T22:21:57.849Z,36.89
2019-02-05T22:22:58.085Z,37.30
2019-02-05T22:23:57.709Z,37.30
2019-02-05T22:24:57.686Z,37.30
2019-02-05T22:25:57.768Z,37.10
2019-02-05T22:26:57.739Z,37.20
2019-02-05T22:27:57.723Z,36.99
2019-02-05T22:28:57.702Z,37.30
2019-02-05T22:29:57.680Z,36.89
2019-02-05T22:30:57.656Z,37.10
2019-02-05T22:31:57.633Z,37.10
2019-02-05T22:32:57.610Z,37.30
2019-02-05T22:33:57.498Z,36.99
2019-02-05T22:34:57.571Z,37.20
2019-02-05T22:35:57.454Z,36.99
2019-02-05T22:36:57.529Z,36.59
2019-02-05T22:37:57.412Z,37.30
2019-02-05T22:38:57.634Z,36.99
2019-02-05T22:39:57.466Z,37.10
2019-02-05T22:40:57.355Z,36.99
2019-02-05T22:41:57.427Z,36.89
2019-02-05T22:42:57.313Z,37.10
2019-02-05T22:43:57.389Z,36.99
2019-02-05T22:44:57.471Z,36.89
2019-02-05T22:45:57.349Z,37.50
2019-02-05T22:46:57.233Z,36.89
2019-02-05T22:47:57.303Z,36.99
2019-02-05T22:48:57.268Z,37.30
2019-02-05T22:49:57.260Z,37.30
2019-02-05T22:50:57.241Z,37.10
2019-02-05T22:51:57.131Z,37.30
2019-02-05T22:52:57.205Z,37.20
2019-02-05T22:53:57.091Z,37.30
2019-02-05T22:54:57.172Z,37.10
2019-02-05T22:55:57.152Z,36.89
2019-02-05T22:56:57.130Z,37.20
2019-02-05T22:57:57.267Z,37.18
2019-02-05T22:58:57.090Z,37.10
2019-02-05T22:59:57.066Z,37.10
2019-02-05T23:00:57.045Z,37.20
2019-02-05T23:01:57.020Z,37.20
2019-02-05T23:02:56.900Z,37.20
2019-02-05T23:03:56.974Z,37.10
2019-02-05T23:04:56.974Z,37.20
2019-02-05T23:05:56.841Z,37.10
2019-02-05T23:06:56.914Z,37.10
2019-02-05T23:07:56.983Z,36.99
2019-02-05T23:08:56.876Z,37.30
2019-02-05T23:09:56.850Z,37.10
2019-02-05T23:11:03.757Z,36.99
2019-02-05T23:11:57.919Z,36.99
2019-02-05T23:12:56.692Z,37.10
2019-02-05T23:13:56.759Z,37.20
2019-02-05T23:14:56.643Z,37.20
2019-02-05T23:15:56.714Z,36.99
2019-02-05T23:16:56.602Z,37.10
2019-02-05T23:17:56.674Z,37.20
2019-02-05T23:18:56.655Z,37.10
2019-02-05T23:19:56.646Z,37.20
2019-02-05T23:20:56.619Z,36.89
2019-02-05T23:21:56.597Z,37.20
2019-02-05T23:22:57.291Z,36.99
2019-02-05T23:23:56.556Z,37.10
2019-02-05T23:24:56.539Z,37.10
2019-02-05T23:25:56.429Z,37.10
2019-02-05T23:26:56.506Z,37.20
2019-02-05T23:27:56.487Z,37.40
2019-02-05T23:28:56.374Z,37.10
2019-02-05T23:29:56.456Z,37.20
2019-02-05T23:30:56.339Z,37.10
2019-02-05T23:31:56.323Z,37.10
2019-02-05T23:32:56.314Z,37.40
2019-02-05T23:33:56.392Z,36.99
2019-02-05T23:35:02.441Z,37.20
2019-02-05T23:35:57.465Z,37.20
2019-02-05T23:36:56.356Z,37.40
2019-02-05T23:37:56.249Z,37.40
2019-02-05T23:38:56.328Z,37.30
2019-02-05T23:39:56.394Z,37.20
2019-02-05T23:40:56.207Z,36.99
2019-02-05T23:41:56.194Z,37.20
2019-02-05T23:42:56.292Z,37.20
2019-02-05T23:43:56.264Z,37.30
2019-02-05T23:44:56.250Z,37.40
2019-02-05T23:46:01.550Z,37.10
2019-02-05T23:46:56.223Z,36.89
2019-02-05T23:47:56.199Z,37.20
2019-02-05T23:48:56.183Z,37.30
2019-02-05T23:49:56.070Z,37.30
2019-02-05T23:50:56.152Z,37.20
2019-02-05T23:51:56.036Z,37.20
2019-02-05T23:52:56.112Z,37.30
2019-02-05T23:53:56.099Z,37.10
2019-02-05T23:54:56.083Z,37.30
2019-02-05T23:55:56.066Z,36.89
2019-02-05T23:56:55.956Z,37.20
2019-02-05T23:57:56.035Z,37.10
2019-02-05T23:58:56.117Z,37.20
2019-02-05T23:59:55.999Z,37.20
